createdAt,value
2022-09-13T00:01:03.924Z,11.84
2022-09-13T00:03:31.236Z,11.94
2022-09-13T00:05:58.055Z,12.03
2022-09-13T00:08:24.656Z,12.02
2022-09-13T00:10:51.084Z,11.93
2022-09-13T00:13:18.211Z,11.92
2022-09-13T00:15:48.179Z,11.99
2022-09-13T00:18:16.784Z,11.95
2022-09-13T00:20:43.336Z,11.88
2022-09-13T00:23:11.132Z,11.88
2022-09-13T00:25:38.055Z,11.92
2022-09-13T00:28:05.675Z,11.94
2022-09-13T00:30:32.842Z,11.98
2022-09-13T00:32:59.324Z,11.99
2022-09-13T00:35:25.802Z,11.90
2022-09-13T00:37:54.310Z,11.79
2022-09-13T00:40:21.743Z,11.76
2022-09-13T00:42:48.233Z,11.79
2022-09-13T00:45:18.323Z,11.81
2022-09-13T00:48:02.148Z,11.78
2022-09-13T00:50:37.663Z,11.79
2022-09-13T00:53:15.688Z,11.73
2022-09-13T00:56:02.983Z,11.63
2022-09-13T00:58:44.114Z,11.61
2022-09-13T01:01:17.073Z,11.70
2022-09-13T01:03:46.688Z,11.81
2022-09-13T01:06:20.045Z,11.72
2022-09-13T01:08:53.361Z,11.66
2022-09-13T01:11:29.616Z,11.58
2022-09-13T01:13:58.286Z,11.48
2022-09-13T01:16:26.350Z,11.51
2022-09-13T01:18:53.395Z,11.60
2022-09-13T01:22:01.980Z,11.65
2022-09-13T01:25:10.110Z,11.69
2022-09-13T01:27:57.757Z,11.47
2022-09-13T01:30:34.105Z,11.39
2022-09-13T01:33:22.578Z,11.41
2022-09-13T01:36:32.801Z,11.38
2022-09-13T01:39:05.146Z,11.37
2022-09-13T01:42:03.447Z,11.38
2022-09-13T01:45:01.262Z,11.55
2022-09-13T01:47:38.638Z,11.62
2022-09-13T01:50:19.926Z,11.75
2022-09-13T01:53:16.082Z,11.88
2022-09-13T01:55:50.891Z,11.86
2022-09-13T01:58:29.486Z,11.92
2022-09-13T02:01:18.316Z,12.06
2022-09-13T02:03:58.242Z,12.04
2022-09-13T02:06:37.671Z,11.98
2022-09-13T02:09:17.544Z,11.93
2022-09-13T02:11:54.663Z,11.93
2022-09-13T02:14:30.802Z,12.00
2022-09-13T02:17:18.239Z,12.01
2022-09-13T02:20:03.162Z,12.05
2022-09-13T02:22:37.490Z,12.15
2022-09-13T02:25:14.771Z,12.09
2022-09-13T02:27:46.760Z,12.13
2022-09-13T02:30:15.655Z,12.23
2022-09-13T02:32:51.713Z,12.27
2022-09-13T02:35:27.097Z,12.30
2022-09-13T02:38:15.241Z,12.28
2022-09-13T02:40:59.031Z,12.34
2022-09-13T02:43:39.642Z,12.34
2022-09-13T02:47:02.055Z,12.24
2022-09-13T02:49:43.419Z,12.24
2022-09-13T02:52:23.536Z,12.31
2022-09-13T02:54:58.314Z,12.40
2022-09-13T02:57:40.639Z,12.34
2022-09-13T03:00:08.514Z,12.42
2022-09-13T03:02:38.292Z,12.50
2022-09-13T03:05:05.433Z,12.58
2022-09-13T03:07:31.905Z,12.64
2022-09-13T03:10:05.818Z,12.66
2022-09-13T03:13:35.491Z,12.59
2022-09-13T03:16:57.141Z,12.46
2022-09-13T03:19:44.977Z,12.49
2022-09-13T03:25:18.442Z,12.68
2022-09-13T03:28:38.535Z,12.65
2022-09-13T03:31:21.715Z,12.63
2022-09-13T03:34:12.359Z,12.70
2022-09-13T03:36:41.450Z,12.77
2022-09-13T03:39:29.369Z,12.74
2022-09-13T03:42:05.753Z,12.66
2022-09-13T03:44:37.287Z,12.62
2022-09-13T03:47:07.710Z,12.63
2022-09-13T03:49:38.999Z,12.59
2022-09-13T03:52:07.387Z,12.66
2022-09-13T03:54:38.541Z,12.71
2022-09-13T03:57:17.327Z,12.75
2022-09-13T03:59:48.770Z,12.80
2022-09-13T04:02:17.210Z,12.90
2022-09-13T04:04:45.988Z,12.95
2022-09-13T04:07:21.519Z,12.88
2022-09-13T04:09:48.121Z,12.88
2022-09-13T04:12:17.249Z,12.89
2022-09-13T04:14:43.950Z,12.90
2022-09-13T04:17:12.052Z,12.93
2022-09-13T04:19:38.903Z,12.90
2022-09-13T04:22:05.385Z,12.93
2022-09-13T04:24:32.283Z,13.03
2022-09-13T04:26:59.411Z,13.09
2022-09-13T04:29:26.659Z,13.12
2022-09-13T04:31:55.332Z,13.07
2022-09-13T04:34:23.069Z,13.07
2022-09-13T04:36:52.393Z,13.13
2022-09-13T04:39:23.068Z,13.09
2022-09-13T04:41:51.826Z,13.02
2022-09-13T04:44:18.586Z,12.97
2022-09-13T04:46:48.698Z,13.04
2022-09-13T04:49:17.328Z,13.10
2022-09-13T04:51:43.901Z,13.14
2022-09-13T04:54:15.265Z,13.14
2022-09-13T04:56:43.660Z,13.18
2022-09-13T04:59:12.069Z,13.25
2022-09-13T05:01:38.825Z,13.23
2022-09-13T05:04:07.632Z,13.25
2022-09-13T05:06:35.310Z,13.24
2022-09-13T05:09:03.063Z,13.21
2022-09-13T05:11:30.083Z,13.24
2022-09-13T05:13:59.816Z,13.30
2022-09-13T05:16:32.552Z,13.34
2022-09-13T05:19:00.192Z,13.30
2022-09-13T05:21:30.898Z,13.22
2022-09-13T05:23:58.882Z,13.18
2022-09-13T05:26:31.779Z,13.24
2022-09-13T05:29:00.083Z,13.32
2022-09-13T05:31:37.505Z,13.38
2022-09-13T05:34:10.498Z,13.39
2022-09-13T05:36:37.502Z,13.42
2022-09-13T05:39:30.275Z,13.45
2022-09-13T05:41:52.109Z,13.39
2022-09-13T05:44:18.596Z,13.37
2022-09-13T05:46:48.660Z,13.41
2022-09-13T05:49:15.574Z,13.46
2022-09-13T05:51:42.270Z,13.39
2022-09-13T05:54:12.868Z,13.39
2022-09-13T05:56:39.777Z,13.45
2022-09-13T05:59:06.384Z,13.53
2022-09-13T06:01:32.957Z,13.61
2022-09-13T06:04:00.533Z,13.66
2022-09-13T06:06:27.106Z,13.70
2022-09-13T06:08:55.739Z,13.68
2022-09-13T06:11:23.789Z,13.58
2022-09-13T06:13:50.818Z,13.57
2022-09-13T06:16:17.722Z,13.61
2022-09-13T06:18:44.979Z,13.69
2022-09-13T06:21:19.232Z,13.73
2022-09-13T06:23:52.579Z,13.77
2022-09-13T06:26:26.685Z,13.81
2022-09-13T06:28:56.863Z,13.84
2022-09-13T06:31:26.301Z,13.96
2022-09-13T06:33:59.517Z,14.03
2022-09-13T06:36:26.695Z,14.10
2022-09-13T06:38:53.261Z,14.06
2022-09-13T06:41:23.483Z,14.01
2022-09-13T06:43:56.091Z,13.96
2022-09-13T06:46:25.229Z,13.98
2022-09-13T06:48:52.677Z,14.09
2022-09-13T06:51:23.579Z,14.20
2022-09-13T06:53:52.011Z,14.31
2022-09-13T06:56:28.193Z,14.41
2022-09-13T06:59:05.007Z,14.43
2022-09-13T07:01:37.268Z,14.48
2022-09-13T07:04:13.965Z,14.47
2022-09-13T07:06:47.923Z,14.49
2022-09-13T07:09:22.079Z,14.56
2022-09-13T07:11:52.851Z,14.60
2022-09-13T07:14:24.135Z,14.69
2022-09-13T07:16:51.895Z,14.78
2022-09-13T07:19:26.282Z,14.83
2022-09-13T07:21:54.365Z,14.94
2022-09-13T07:24:22.858Z,15.01
2022-09-13T07:26:50.683Z,15.15
2022-09-13T07:29:22.632Z,15.15
2022-09-13T07:31:54.311Z,15.16
2022-09-13T07:34:23.968Z,15.17
2022-09-13T07:36:51.041Z,15.23
2022-09-13T07:39:22.116Z,15.32
2022-09-13T07:41:49.695Z,15.37
2022-09-13T07:44:16.197Z,15.45
2022-09-13T07:46:45.347Z,15.54
2022-09-13T07:49:14.941Z,15.66
2022-09-13T07:51:43.906Z,15.78
2022-09-13T07:54:17.786Z,15.90
2022-09-13T07:56:45.393Z,15.99
2022-09-13T07:59:15.582Z,16.09
2022-09-13T08:01:48.567Z,16.17
2022-09-13T08:04:19.567Z,16.27
2022-09-13T08:06:46.856Z,16.38
2022-09-13T08:09:15.018Z,16.46
2022-09-13T08:11:45.693Z,16.57
2022-09-13T08:14:16.583Z,16.68
2022-09-13T08:16:43.230Z,16.79
2022-09-13T08:19:14.753Z,16.89
2022-09-13T08:21:42.424Z,16.99
2022-09-13T08:24:15.764Z,17.06
2022-09-13T08:26:42.295Z,17.10
2022-09-13T08:29:08.739Z,17.13
2022-09-13T08:31:35.430Z,17.22
2022-09-13T08:34:02.070Z,17.24
2022-09-13T08:36:30.222Z,17.33
2022-09-13T08:39:00.723Z,17.46
2022-09-13T08:41:44.882Z,17.54
2022-09-13T08:44:29.523Z,17.61
2022-09-13T08:47:04.403Z,17.68
2022-09-13T08:49:39.882Z,17.76
2022-09-13T08:52:29.420Z,17.77
2022-09-13T08:54:58.437Z,17.87
2022-09-13T08:57:45.243Z,17.89
2022-09-13T09:00:24.492Z,17.99
2022-09-13T09:03:10.004Z,18.13
2022-09-13T09:06:02.489Z,18.25
2022-09-13T09:08:48.317Z,18.32
2022-09-13T09:11:41.763Z,18.40
2022-09-13T09:14:29.783Z,18.52
2022-09-13T09:17:17.862Z,18.61
2022-09-13T09:19:55.375Z,18.61
2022-09-13T09:22:29.807Z,18.69
2022-09-13T09:24:58.137Z,18.73
2022-09-13T09:27:25.772Z,18.78
2022-09-13T09:29:58.121Z,18.82
2022-09-13T09:33:01.036Z,18.86
2022-09-13T09:35:46.110Z,18.87
2022-09-13T09:38:31.569Z,18.88
2022-09-13T09:41:13.885Z,18.91
2022-09-13T09:44:22.326Z,18.92
2022-09-13T09:47:18.382Z,18.93
2022-09-13T09:50:12.926Z,18.98
2022-09-13T09:53:08.648Z,19.03
2022-09-13T09:55:39.519Z,19.10
2022-09-13T09:58:08.672Z,19.23
2022-09-13T10:00:50.577Z,19.32
2022-09-13T10:03:21.079Z,19.40
2022-09-13T10:05:47.688Z,19.55
2022-09-13T10:08:30.949Z,19.66
2022-09-13T10:11:02.106Z,19.75
2022-09-13T10:13:32.024Z,19.86
2022-09-13T10:16:04.068Z,19.98
2022-09-13T10:18:45.424Z,20.15
2022-09-13T10:21:18.077Z,20.23
2022-09-13T10:23:47.322Z,20.33
2022-09-13T10:26:19.481Z,20.47
2022-09-13T10:28:52.006Z,20.51
2022-09-13T10:31:21.324Z,20.64
2022-09-13T10:34:02.081Z,20.74
2022-09-13T10:36:51.604Z,20.79
2022-09-13T10:39:23.028Z,20.87
2022-09-13T10:42:04.590Z,20.88
2022-09-13T10:44:43.716Z,20.94
2022-09-13T10:47:21.930Z,21.06
2022-09-13T10:49:57.690Z,21.11
2022-09-13T10:52:34.661Z,21.13
2022-09-13T10:55:29.298Z,21.10
2022-09-13T10:58:16.559Z,21.18
2022-09-13T11:01:01.742Z,21.30
2022-09-13T11:03:53.017Z,21.34
2022-09-13T11:06:58.476Z,21.31
2022-09-13T11:09:43.407Z,21.35
2022-09-13T11:12:53.118Z,21.40
2022-09-13T11:15:55.371Z,21.40
2022-09-13T11:19:06.319Z,21.44
2022-09-13T11:22:32.130Z,21.36
2022-09-13T11:25:28.910Z,21.31
2022-09-13T11:28:45.067Z,21.37
2022-09-13T11:31:30.270Z,21.48
2022-09-13T11:34:39.350Z,21.61
2022-09-13T11:38:18.069Z,21.59
2022-09-13T11:41:28.166Z,21.65
2022-09-13T11:44:44.351Z,21.66
2022-09-13T11:47:51.054Z,21.80
2022-09-13T11:50:42.103Z,21.99
2022-09-13T11:53:36.367Z,22.19
2022-09-13T11:56:20.675Z,22.26
2022-09-13T11:59:27.482Z,22.30
2022-09-13T12:02:10.409Z,22.34
2022-09-13T12:05:17.972Z,22.37
2022-09-13T12:08:09.923Z,22.21
2022-09-13T12:10:50.492Z,22.25
2022-09-13T12:13:25.068Z,22.29
2022-09-13T12:15:57.630Z,22.29
2022-09-13T12:18:37.643Z,22.33
2022-09-13T12:21:14.343Z,22.32
2022-09-13T12:23:49.539Z,22.32
2022-09-13T12:26:26.626Z,22.34
2022-09-13T12:29:29.485Z,22.31
2022-09-13T12:32:03.470Z,22.38
2022-09-13T12:35:00.910Z,22.45
2022-09-13T12:37:39.368Z,22.49
2022-09-13T12:40:40.546Z,22.54
2022-09-13T12:44:10.526Z,22.50
2022-09-13T12:46:52.366Z,22.57
2022-09-13T12:50:36.804Z,22.59
2022-09-13T12:53:09.795Z,22.56
2022-09-13T12:55:57.552Z,22.63
2022-09-13T12:59:22.507Z,22.64
2022-09-13T13:01:52.133Z,22.62
2022-09-13T13:04:33.567Z,22.60
2022-09-13T13:07:05.110Z,22.65
2022-09-13T13:09:34.205Z,22.71
2022-09-13T13:12:00.925Z,22.76
2022-09-13T13:14:39.370Z,22.78
2022-09-13T13:17:46.162Z,22.77
2022-09-13T13:20:52.922Z,22.71
2022-09-13T13:23:34.454Z,22.71
2022-09-13T13:26:23.314Z,22.79
2022-09-13T13:29:04.750Z,22.87
2022-09-13T13:31:31.157Z,22.93
2022-09-13T13:34:08.230Z,22.97
2022-09-13T13:36:43.610Z,23.02
2022-09-13T13:39:24.863Z,23.02
2022-09-13T13:42:26.655Z,23.03
2022-09-13T13:44:53.047Z,23.05
2022-09-13T13:47:19.407Z,23.00
2022-09-13T13:49:53.036Z,22.96
2022-09-13T13:52:22.422Z,22.94
2022-09-13T13:54:54.918Z,22.88
2022-09-13T13:57:52.236Z,22.85
2022-09-13T14:00:31.238Z,22.84
2022-09-13T14:03:16.552Z,22.82
2022-09-13T14:06:00.727Z,22.86
2022-09-13T14:12:14.972Z,22.79
2022-09-13T14:15:10.184Z,22.73
2022-09-13T14:18:17.470Z,22.69
2022-09-13T14:21:23.833Z,22.61
2022-09-13T14:23:50.922Z,22.63
2022-09-13T14:26:17.583Z,22.59
2022-09-13T14:28:44.194Z,22.50
2022-09-13T14:31:20.361Z,22.50
2022-09-13T14:33:47.154Z,22.53
2022-09-13T14:36:22.685Z,22.60
2022-09-13T14:38:58.988Z,22.73
2022-09-13T14:41:38.680Z,22.74
2022-09-13T14:44:29.261Z,22.81
2022-09-13T14:47:16.060Z,22.83
2022-09-13T14:49:59.779Z,22.85
2022-09-13T14:52:29.518Z,22.95
2022-09-13T14:55:09.753Z,22.95
2022-09-13T14:57:49.262Z,23.03
2022-09-13T15:00:22.698Z,23.13
2022-09-13T15:02:58.037Z,23.22
2022-09-13T15:05:30.799Z,23.30
2022-09-13T15:07:57.582Z,23.41
2022-09-13T15:10:33.207Z,23.51
2022-09-13T15:13:10.592Z,23.55
2022-09-13T15:15:38.498Z,23.59
2022-09-13T15:18:25.544Z,23.63
2022-09-13T15:21:03.720Z,23.65
2022-09-13T15:26:28.049Z,23.68
2022-09-13T15:28:59.116Z,23.66
2022-09-13T15:31:28.298Z,23.62
2022-09-13T15:34:20.236Z,23.47
2022-09-13T15:37:08.080Z,23.49
2022-09-13T15:39:51.505Z,23.47
2022-09-13T15:42:18.109Z,23.48
2022-09-13T15:44:44.644Z,23.45
2022-09-13T15:47:17.798Z,23.43
2022-09-13T15:49:50.997Z,23.31
2022-09-13T15:52:19.826Z,23.33
2022-09-13T15:54:50.886Z,23.31
2022-09-13T15:57:25.821Z,23.29
2022-09-13T15:59:54.307Z,23.21
2022-09-13T16:02:35.556Z,23.00
2022-09-13T16:05:02.073Z,22.98
2022-09-13T16:07:28.615Z,22.98
2022-09-13T16:09:55.100Z,23.02
2022-09-13T16:12:24.291Z,23.02
2022-09-13T16:14:50.719Z,23.01
2022-09-13T16:17:25.788Z,22.98
2022-09-13T16:19:54.189Z,22.90
2022-09-13T16:22:21.291Z,22.82
2022-09-13T16:24:48.417Z,22.83
2022-09-13T16:27:18.508Z,22.83
2022-09-13T16:29:45.986Z,22.81
2022-09-13T16:32:12.719Z,22.80
2022-09-13T16:34:39.472Z,22.80
2022-09-13T16:37:06.136Z,22.79
2022-09-13T16:39:32.649Z,22.76
2022-09-13T16:41:59.169Z,22.77
2022-09-13T16:44:25.643Z,22.78
2022-09-13T16:46:52.275Z,22.73
2022-09-13T16:49:18.766Z,22.67
2022-09-13T16:51:45.369Z,22.59
2022-09-13T16:54:11.807Z,22.49
2022-09-13T16:56:38.238Z,22.34
2022-09-13T16:59:04.738Z,22.30
2022-09-13T17:01:31.570Z,22.25
2022-09-13T17:03:58.658Z,22.18
2022-09-13T17:06:26.935Z,22.08
2022-09-13T17:09:01.484Z,21.98
2022-09-13T17:11:32.169Z,21.95
2022-09-13T17:13:59.832Z,21.93
2022-09-13T17:16:30.031Z,21.89
2022-09-13T17:18:59.727Z,21.81
2022-09-13T17:21:28.080Z,21.71
2022-09-13T17:23:55.528Z,21.69
2022-09-13T17:26:23.047Z,21.66
2022-09-13T17:28:49.863Z,21.62
2022-09-13T17:31:16.725Z,21.55
2022-09-13T17:33:43.246Z,21.49
2022-09-13T17:36:13.421Z,21.42
2022-09-13T17:38:41.999Z,21.33
2022-09-13T17:41:13.095Z,21.20
2022-09-13T17:43:42.726Z,21.09
2022-09-13T17:46:16.507Z,20.95
2022-09-13T17:48:43.942Z,20.89
2022-09-13T17:51:14.274Z,20.74
2022-09-13T17:53:46.018Z,20.65
2022-09-13T17:56:21.223Z,20.56
2022-09-13T17:58:48.475Z,20.49
2022-09-13T18:01:15.462Z,20.39
2022-09-13T18:03:42.238Z,20.30
2022-09-13T18:06:10.655Z,20.17
2022-09-13T18:08:38.987Z,20.07
2022-09-13T18:11:14.238Z,19.93
2022-09-13T18:13:44.041Z,19.80
2022-09-13T18:16:20.715Z,19.76
2022-09-13T18:18:50.024Z,19.67
2022-09-13T18:21:19.113Z,19.59
2022-09-13T18:23:48.326Z,19.55
2022-09-13T18:26:18.818Z,19.47
2022-09-13T18:28:46.587Z,19.46
2022-09-13T18:31:17.244Z,19.44
2022-09-13T18:33:45.399Z,19.35
2022-09-13T18:36:16.347Z,19.28
2022-09-13T18:38:46.373Z,19.30
2022-09-13T18:41:18.294Z,19.35
2022-09-13T18:43:49.701Z,19.38
2022-09-13T18:46:24.372Z,19.34
2022-09-13T18:48:57.230Z,19.28
2022-09-13T18:51:28.380Z,19.23
2022-09-13T18:53:55.795Z,19.25
2022-09-13T18:56:24.321Z,19.28
2022-09-13T18:58:52.882Z,19.26
2022-09-13T19:01:28.914Z,19.23
2022-09-13T19:04:00.471Z,19.22
2022-09-13T19:06:31.360Z,19.24
2022-09-13T19:08:59.683Z,19.21
2022-09-13T19:11:48.917Z,19.18
2022-09-13T19:14:19.391Z,19.16
2022-09-13T19:16:47.038Z,19.17
2022-09-13T19:19:13.697Z,19.13
2022-09-13T19:21:40.790Z,19.03
2022-09-13T19:24:16.166Z,18.96
2022-09-13T19:26:45.163Z,18.89
2022-09-13T19:29:15.808Z,18.60
2022-09-13T19:31:48.199Z,18.59
2022-09-13T19:34:17.382Z,18.49
2022-09-13T19:36:44.405Z,18.48
2022-09-13T19:39:11.745Z,18.45
2022-09-13T19:41:40.113Z,18.43
2022-09-13T19:44:07.592Z,18.42
2022-09-13T19:46:40.004Z,18.36
2022-09-13T19:49:08.550Z,18.43
2022-09-13T19:51:39.718Z,18.44
2022-09-13T19:54:09.569Z,18.51
2022-09-13T19:56:39.778Z,18.57
2022-09-13T19:59:09.460Z,18.51
2022-09-13T20:01:40.659Z,18.41
2022-09-13T20:04:11.410Z,18.38
2022-09-13T20:06:50.787Z,18.38
2022-09-13T20:09:20.259Z,18.39
2022-09-13T20:11:48.423Z,18.37
2022-09-13T20:14:18.864Z,18.37
2022-09-13T20:16:45.638Z,18.36
2022-09-13T20:22:08.354Z,18.03
2022-09-13T20:24:34.906Z,18.04
2022-09-13T20:27:02.459Z,18.12
2022-09-13T20:29:28.885Z,18.19
2022-09-13T20:31:55.463Z,18.19
2022-09-13T20:34:22.110Z,18.08
2022-09-13T20:36:48.540Z,17.98
2022-09-13T20:39:15.210Z,17.95
2022-09-13T20:41:43.188Z,18.03
2022-09-13T20:44:09.699Z,18.07
2022-09-13T20:46:37.550Z,18.08
2022-09-13T20:49:05.295Z,18.07
2022-09-13T20:51:34.650Z,17.99
2022-09-13T20:54:01.668Z,17.98
2022-09-13T20:56:30.216Z,17.92
2022-09-13T20:59:00.308Z,17.85
2022-09-13T21:01:29.887Z,17.80
2022-09-13T21:03:57.900Z,17.86
2022-09-13T21:06:28.453Z,17.92
2022-09-13T21:08:59.533Z,17.98
2022-09-13T21:11:34.957Z,18.01
2022-09-13T21:14:05.605Z,18.04
2022-09-13T21:16:36.347Z,18.02
2022-09-13T21:19:03.593Z,17.95
2022-09-13T21:21:34.424Z,17.90
2022-09-13T21:24:11.681Z,17.76
2022-09-13T21:26:41.974Z,17.78
2022-09-13T21:29:10.201Z,17.76
2022-09-13T21:31:37.717Z,17.70
2022-09-13T21:34:16.349Z,17.69
2022-09-13T21:36:45.116Z,17.71
2022-09-13T21:39:13.618Z,17.73
2022-09-13T21:41:40.778Z,17.70
2022-09-13T21:44:07.519Z,17.68
2022-09-13T21:46:38.080Z,17.71
2022-09-13T21:49:11.646Z,17.73
2022-09-13T21:51:47.091Z,17.62
2022-09-13T21:54:17.592Z,17.61
2022-09-13T21:56:52.812Z,17.68
2022-09-13T21:59:22.068Z,17.69
2022-09-13T22:01:51.632Z,17.67
2022-09-13T22:04:22.883Z,17.73
2022-09-13T22:06:53.303Z,17.75
2022-09-13T22:09:23.344Z,17.71
2022-09-13T22:11:49.856Z,17.65
2022-09-13T22:14:19.764Z,17.53
2022-09-13T22:16:46.687Z,17.55
2022-09-13T22:19:20.607Z,17.50
2022-09-13T22:21:53.269Z,17.50
2022-09-13T22:24:22.911Z,17.41
2022-09-13T22:26:52.272Z,17.44
2022-09-13T22:29:20.062Z,17.43
2022-09-13T22:31:49.798Z,17.36
2022-09-13T22:34:23.895Z,17.30
2022-09-13T22:36:51.048Z,17.28
2022-09-13T22:39:17.915Z,17.27
2022-09-13T22:41:45.178Z,17.25
2022-09-13T22:44:11.891Z,17.33
2022-09-13T22:46:42.855Z,17.37
2022-09-13T22:49:17.612Z,17.42
2022-09-13T22:51:45.836Z,17.45
2022-09-13T22:54:14.364Z,17.45
2022-09-13T22:56:41.728Z,17.43
2022-09-13T22:59:19.115Z,17.51
2022-09-13T23:01:46.587Z,17.63
2022-09-13T23:04:13.828Z,17.65
2022-09-13T23:06:43.802Z,17.64
2022-09-13T23:09:14.350Z,17.64
2022-09-13T23:11:41.114Z,17.64
2022-09-13T23:14:11.932Z,17.60
2022-09-13T23:16:44.974Z,17.55
2022-09-13T23:19:13.476Z,17.49
2022-09-13T23:21:41.475Z,17.53
2022-09-13T23:24:16.335Z,17.49
2022-09-13T23:26:44.563Z,17.46
2022-09-13T23:29:18.115Z,17.49
2022-09-13T23:31:46.965Z,17.53
2022-09-13T23:34:14.786Z,17.54
2022-09-13T23:36:43.975Z,17.54
2022-09-13T23:39:18.148Z,17.57
2022-09-13T23:41:47.251Z,17.61
2022-09-13T23:44:14.500Z,17.60
2022-09-13T23:46:41.555Z,17.64
2022-09-13T23:49:08.047Z,17.59
2022-09-13T23:51:34.573Z,17.49
2022-09-13T23:54:01.719Z,17.45
2022-09-13T23:56:31.612Z,17.40
2022-09-13T23:59:00.174Z,17.36
